Durbin, WV (26264)

6:32 AM EST on January 17, 2017 (GMT -0500)
Bartow - Cummins Residence | | Change Station

Elev 2766 ft 38.54 °N, 79.78 °W | Updated 3 minutes ago

Rain
Rain
44.8 °F
Feels Like 45 °F
N
0.0
Wind Variable Wind from East

Today
High -- | Low -- °F
--% Chance of Precip.
Yesterday
High -- | Low -- °F
Precip. -- in
Pressure 30.11 in
Visibility 2.5 miles
Clouds Mostly Cloudy 3800 ft
Overcast 6000 ft
Windchill 45 °F
Dew Point 44 °F
Humidity 97%
Rainfall 0.02 in
Snow Depth Not available.
7:34 AM 5:24 PM
Waning Gibbous, 73% visible
SPECI KEKN 171127Z AUTO 00000KT 2 1/2SM RA BR BKN038 OVC060 08/07 A3011 RMK AO2 P0002 T00780067 $
Pressure 30.11 in
Visibility 2.5 miles
Clouds Mostly Cloudy 3800 ft
Overcast 6000 ft
Windchill 45 °F
Dew Point 44 °F
Humidity 97%
Rainfall 0.02 in
Snow Depth Not available.
7:34 AM 5:24 PM
Waning Gibbous, 73% visible
SPECI KEKN 171127Z AUTO 00000KT 2 1/2SM RA BR BKN038 OVC060 08/07 A3011 RMK AO2 P0002 T00780067 $

Get Your Daily Forecast Email!

Thanks for signing up!

Be on the lookout for a verification email in your inbox.

You'll start receiving the daily forecast at 8 AM.

×

10-Day Weather Forecast

Almanac

Astronomy

Jan. 17, 2017 Rise Set
Actual Time
Civil Twilight
Nautical Twilight
Astronomical Twilight
Moon
Length of Visible Light
Length of Day
Tomorrow will be .
, % of the Moon is Illuminated

Today's Extremes

State Highs State Lows

Community

WunderPhotos

Upload Photos

1,962,540 photos uploaded!

WunderBlog® & News

Nearby

Air Quality

  Air Quality AQ Index Pollutant
Not available.

Snow Depth

Station Depth Elevation

Earthquake Activity

City Distance Mag. Time & Date
Minimum magnitude displayed is 2.5.

Coastal Water Temperatures

Place Temperature

Stations

Nearby Weather Stations

Station Location Temp. Windchill Dew Point Humidity Wind Precip. Elev Updated Type
                   

Watches & Warnings

There are currently no watches in effect.